Time;durP1;ratioP1;P1;durP2;ratioP2;P2;SDS_P1;SDS_P2;PMS_P1;PMS_P2;Temp;Humidity;BMP_temperature;BMP_pressure;BME280_temperature;BME280_humidity;BME280_pressure;Samples;Min_cycle;Max_cycle;Signal;HPM_P1;HPM_P2
2024/03/08 00:01:28;;;;;;;37.50;16.52;;;0.10;99.90;;;;;;5033992;28;20092;-64
2024/03/08 00:03:54;;;;;;;41.22;17.02;;;0.10;99.90;;;;;;5036426;28;20567;-64
2024/03/08 00:06:19;;;;;;;37.30;15.75;;;0.10;99.90;;;;;;5039345;28;20531;-63
2024/03/08 00:08:45;;;;;;;40.30;17.58;;;0.20;99.90;;;;;;5038703;28;20021;-63
2024/03/08 00:11:11;;;;;;;35.03;16.08;;;0.20;99.90;;;;;;5037603;28;20497;-63
2024/03/08 00:13:36;;;;;;;38.38;16.83;;;0.40;99.90;;;;;;5045480;28;20029;-63
2024/03/08 00:16:02;;;;;;;31.38;13.15;;;0.40;99.90;;;;;;5039493;28;20038;-63
2024/03/08 00:18:28;;;;;;;38.25;16.23;;;0.50;99.90;;;;;;5035998;28;20029;-65
2024/03/08 00:20:54;;;;;;;35.70;15.50;;;0.60;99.90;;;;;;5037314;28;20029;-66
2024/03/08 00:23:19;;;;;;;39.10;16.13;;;0.60;99.90;;;;;;5042154;28;20033;-65
2024/03/08 00:25:45;;;;;;;40.45;16.75;;;0.60;99.90;;;;;;5046718;28;20093;-63
2024/03/08 00:28:14;;;;;;;36.88;16.05;;;0.60;99.90;;;;;;5041662;28;20464;-63
2024/03/08 00:30:40;;;;;;;39.00;16.70;;;0.60;99.90;;;;;;5054483;28;20492;-63
2024/03/08 00:33:06;;;;;;;39.55;16.13;;;0.50;99.90;;;;;;5049984;28;20060;-63
2024/03/08 00:35:31;;;;;;;39.67;16.63;;;0.40;99.90;;;;;;5049796;28;20116;-64
2024/03/08 00:37:57;;;;;;;35.65;15.02;;;0.40;99.90;;;;;;5040949;28;20562;-67
2024/03/08 00:40:22;;;;;;;37.05;17.02;;;0.40;99.90;;;;;;5048681;28;20032;-66
2024/03/08 00:42:48;;;;;;;35.85;15.57;;;0.50;99.90;;;;;;5036846;28;20032;-64
2024/03/08 00:45:14;;;;;;;34.25;15.43;;;0.60;99.90;;;;;;5038881;28;20036;-64
2024/03/08 00:47:40;;;;;;;38.35;15.80;;;0.80;99.90;;;;;;5043602;28;20029;-63
2024/03/08 00:50:06;;;;;;;31.15;14.20;;;0.90;99.90;;;;;;5044288;28;20031;-63
2024/03/08 00:52:31;;;;;;;36.05;15.18;;;1.00;99.90;;;;;;5043932;28;20017;-64
2024/03/08 00:54:57;;;;;;;33.90;15.63;;;1.10;99.90;;;;;;5040729;28;20099;-63
2024/03/08 00:57:22;;;;;;;37.60;15.75;;;1.10;99.90;;;;;;5049167;28;20033;-63
2024/03/08 00:59:48;;;;;;;41.42;15.60;;;1.10;99.90;;;;;;5049533;28;20044;-64
2024/03/08 01:02:14;;;;;;;29.67;13.60;;;1.00;99.90;;;;;;5040773;28;20042;-64
2024/03/08 01:04:39;;;;;;;33.95;15.00;;;1.10;99.90;;;;;;5046904;28;20099;-64
2024/03/08 01:07:05;;;;;;;34.95;15.77;;;1.10;99.90;;;;;;5039070;28;20345;-64
2024/03/08 01:09:31;;;;;;;39.47;15.02;;;1.10;99.90;;;;;;5039574;28;20064;-64
2024/03/08 01:11:57;;;;;;;31.50;13.63;;;1.00;99.90;;;;;;5039532;28;20544;-64
2024/03/08 01:14:24;;;;;;;34.53;14.80;;;1.00;99.90;;;;;;5045731;28;20606;-64
2024/03/08 01:16:50;;;;;;;38.67;15.38;;;1.00;99.90;;;;;;5039605;28;20060;-64
2024/03/08 01:19:15;;;;;;;24.77;11.00;;;0.90;99.90;;;;;;5038976;28;20067;-64
2024/03/08 01:21:41;;;;;;;36.83;14.45;;;0.90;99.90;;;;;;5041867;28;20829;-64
2024/03/08 01:24:07;;;;;;;37.22;15.02;;;0.80;99.90;;;;;;5040993;28;20095;-63
2024/03/08 01:26:36;;;;;;;39.70;15.30;;;0.70;99.90;;;;;;5047809;28;20028;-63
2024/03/08 01:29:03;;;;;;;37.65;13.85;;;0.80;99.90;;;;;;5041562;28;20036;-63
2024/03/08 01:31:29;;;;;;;34.00;14.25;;;0.80;99.90;;;;;;5043210;28;20031;-63
2024/03/08 01:33:58;;;;;;;38.78;15.40;;;0.80;99.90;;;;;;5046341;28;20499;-64
2024/03/08 01:36:24;;;;;;;38.63;15.15;;;1.80;99.90;;;;;;5040321;28;20014;-64
2024/03/08 01:38:51;;;;;;;32.47;14.15;;;0.80;99.90;;;;;;5052110;28;20546;-64
2024/03/08 01:41:17;;;;;;;33.13;14.48;;;0.80;99.90;;;;;;5037071;28;20021;-64
2024/03/08 01:43:44;;;;;;;22.77;9.85;;;0.70;99.90;;;;;;5042586;28;20029;-63
2024/03/08 01:46:12;;;;;;;36.40;15.07;;;0.70;99.90;;;;;;5039245;28;20025;-64
2024/03/08 01:48:38;;;;;;;36.38;15.48;;;0.70;99.90;;;;;;5037312;28;20017;-64
2024/03/08 01:51:05;;;;;;;35.47;14.50;;;0.70;99.90;;;;;;5038309;28;20401;-64
2024/03/08 01:53:31;;;;;;;36.65;15.18;;;0.70;99.90;;;;;;5035467;28;20019;-64
2024/03/08 01:55:58;;;;;;;39.40;16.00;;;0.70;99.90;;;;;;5034497;28;20535;-63
2024/03/08 01:58:28;;;;;;;36.35;14.90;;;0.60;99.90;;;;;;5035878;28;20079;-64
2024/03/08 02:00:54;;;;;;;35.58;14.88;;;0.50;99.90;;;;;;5037058;28;20029;-64
2024/03/08 02:03:21;;;;;;;33.33;13.82;;;0.40;99.90;;;;;;5040790;28;20519;-63
2024/03/08 02:05:46;;;;;;;37.35;14.85;;;0.40;99.90;;;;;;5041451;28;20065;-64
2024/03/08 02:08:14;;;;;;;40.53;15.60;;;0.50;99.90;;;;;;5037147;28;20064;-64
2024/03/08 02:10:41;;;;;;;36.83;15.55;;;0.40;99.90;;;;;;5038937;28;20106;-64
2024/03/08 02:13:07;;;;;;;41.10;13.95;;;0.30;99.90;;;;;;5035682;28;20200;-64
2024/03/08 02:15:55;;;;;;;39.15;15.15;;;0.20;99.90;;;;;;5039610;28;20075;-63
2024/03/08 02:18:23;;;;;;;36.88;14.38;;;0.20;99.90;;;;;;5036783;28;20029;-63
2024/03/08 02:20:59;;;;;;;39.58;14.90;;;0.20;99.90;;;;;;5037563;28;20056;-64
2024/03/08 02:23:26;;;;;;;35.97;14.20;;;0.20;99.90;;;;;;5039755;28;20092;-64
2024/03/08 02:25:53;;;;;;;37.85;16.17;;;0.30;99.90;;;;;;5040969;28;20037;-64
2024/03/08 02:28:19;;;;;;;39.40;15.63;;;0.30;99.90;;;;;;5041845;28;20033;-64
2024/03/08 02:30:55;;;;;;;37.00;16.02;;;0.30;99.90;;;;;;5039847;28;20029;-64
2024/03/08 02:33:22;;;;;;;39.50;14.68;;;0.30;99.90;;;;;;5040711;28;20033;-65
2024/03/08 02:35:49;;;;;;;36.28;14.18;;;0.20;99.90;;;;;;5043699;28;20024;-64
2024/03/08 02:38:18;;;;;;;40.28;15.85;;;0.30;99.90;;;;;;5048139;28;20032;-64
2024/03/08 02:40:45;;;;;;;35.30;14.30;;;0.20;99.90;;;;;;5043353;28;20033;-64
2024/03/08 02:43:12;;;;;;;35.08;14.80;;;0.10;99.90;;;;;;5045195;28;20021;-64
2024/03/08 02:45:38;;;;;;;36.95;14.40;;;0.00;99.90;;;;;;5049259;28;20032;-64
2024/03/08 02:48:06;;;;;;;39.50;15.70;;;-0.10;99.90;;;;;;5039465;28;20029;-64
2024/03/08 02:50:32;;;;;;;31.13;13.45;;;-0.20;99.90;;;;;;5051106;28;20021;-64
2024/03/08 02:52:57;;;;;;;40.10;15.55;;;-0.20;99.90;;;;;;5041112;28;20098;-64
2024/03/08 02:55:25;;;;;;;39.70;15.48;;;-0.30;99.90;;;;;;5049075;28;20016;-64
2024/03/08 02:57:52;;;;;;;36.95;15.10;;;-0.30;99.90;;;;;;5041662;28;20029;-64
2024/03/08 03:00:19;;;;;;;39.75;16.38;;;-0.40;99.90;;;;;;5044388;28;20099;-65
2024/03/08 03:02:45;;;;;;;40.83;15.70;;;-0.40;99.90;;;;;;5042880;28;20033;-64
2024/03/08 03:05:11;;;;;;;40.35;16.70;;;-0.50;99.90;;;;;;5041792;28;20029;-64
2024/03/08 03:07:37;;;;;;;36.30;15.35;;;-0.60;99.90;;;;;;5039997;28;20026;-64
2024/03/08 03:10:03;;;;;;;38.47;14.30;;;-0.60;99.90;;;;;;5044655;28;20106;-64
2024/03/08 03:12:30;;;;;;;43.75;17.85;;;-0.60;99.90;;;;;;5042720;28;20075;-64
2024/03/08 03:14:56;;;;;;;42.92;18.08;;;-0.50;99.90;;;;;;5046525;28;20476;-64
2024/03/08 03:17:25;;;;;;;48.08;17.52;;;-0.50;99.90;;;;;;5045920;28;20040;-64
2024/03/08 03:19:52;;;;;;;41.97;16.05;;;-0.50;99.90;;;;;;5044963;28;20041;-64
2024/03/08 03:22:18;;;;;;;44.03;17.23;;;-0.50;99.90;;;;;;5044949;28;20075;-64
2024/03/08 03:24:46;;;;;;;43.80;16.55;;;-0.60;99.90;;;;;;5041730;28;20033;-63
2024/03/08 03:27:12;;;;;;;46.67;17.83;;;-0.70;99.90;;;;;;5039733;28;20068;-64
2024/03/08 03:29:47;;;;;;;42.40;18.08;;;-0.70;99.90;;;;;;5056069;28;20771;-64
2024/03/08 03:32:13;;;;;;;47.53;18.20;;;-0.70;99.90;;;;;;5034758;28;20064;-63
2024/03/08 03:34:39;;;;;;;42.63;17.38;;;-0.70;99.90;;;;;;5039411;28;19948;-64
2024/03/08 03:37:12;;;;;;;39.03;17.33;;;-0.70;99.90;;;;;;5037581;28;20523;-63
2024/03/08 03:39:48;;;;;;;47.38;17.92;;;-0.60;99.90;;;;;;5041901;28;20029;-64
2024/03/08 03:42:17;;;;;;;43.95;16.27;;;-0.70;99.90;;;;;;5040767;28;20481;-63
2024/03/08 03:44:47;;;;;;;39.80;16.00;;;-0.70;99.90;;;;;;5035853;28;20033;-64
2024/03/08 03:47:14;;;;;;;42.33;16.88;;;-0.80;99.90;;;;;;5034538;28;20275;-65
2024/03/08 03:49:40;;;;;;;46.17;18.00;;;-0.90;99.90;;;;;;5032842;28;20038;-64
2024/03/08 03:52:06;;;;;;;46.03;17.33;;;-1.00;99.90;;;;;;5042429;28;20392;-64
2024/03/08 03:54:32;;;;;;;43.40;17.50;;;-1.10;99.90;;;;;;5038765;28;20186;-63
2024/03/08 03:56:58;;;;;;;50.25;18.40;;;-1.20;99.90;;;;;;5043697;28;20485;-64
2024/03/08 03:59:24;;;;;;;46.97;18.58;;;-1.20;99.90;;;;;;5040822;28;20025;-63
2024/03/08 04:01:49;;;;;;;45.53;17.88;;;-1.20;99.90;;;;;;5043982;28;20025;-64
2024/03/08 04:04:16;;;;;;;53.42;20.23;;;-1.20;99.90;;;;;;5045234;28;20028;-64
2024/03/08 04:06:41;;;;;;;46.67;16.70;;;-1.20;99.90;;;;;;5044179;28;20340;-63
2024/03/08 04:09:07;;;;;;;51.42;17.58;;;-1.20;99.90;;;;;;5040082;28;20104;-64
2024/03/08 04:11:33;;;;;;;52.95;19.02;;;-1.30;99.90;;;;;;5043597;28;20025;-65
2024/03/08 04:13:59;;;;;;;47.22;16.90;;;-1.40;99.90;;;;;;5039933;28;20408;-64
2024/03/08 04:16:25;;;;;;;45.90;17.80;;;-1.60;99.90;;;;;;5038027;28;20387;-65
2024/03/08 04:18:51;;;;;;;45.28;17.52;;;-1.90;99.90;;;;;;5042572;28;20036;-64
2024/03/08 04:21:18;;;;;;;48.72;18.42;;;-2.00;99.90;;;;;;5048111;28;20060;-65
2024/03/08 04:23:45;;;;;;;51.60;18.98;;;-2.10;99.90;;;;;;5043266;28;20036;-64
2024/03/08 04:26:11;;;;;;;47.42;17.95;;;-2.10;99.90;;;;;;5037838;28;20124;-64
2024/03/08 04:28:37;;;;;;;53.70;19.52;;;-2.10;99.90;;;;;;5044158;28;20151;-64
2024/03/08 04:31:03;;;;;;;51.83;19.65;;;-2.00;99.90;;;;;;5043499;28;20544;-64
2024/03/08 04:33:29;;;;;;;49.97;19.17;;;-2.00;99.90;;;;;;5037069;28;20118;-64
2024/03/08 04:35:54;;;;;;;57.42;21.27;;;-2.00;99.90;;;;;;5045321;28;20045;-64
2024/03/08 04:38:20;;;;;;;58.15;20.27;;;-2.00;99.90;;;;;;5041586;28;20036;-63
2024/03/08 04:40:45;;;;;;;57.67;21.90;;;-1.90;99.90;;;;;;5041037;28;20037;-63
2024/03/08 04:43:11;;;;;;;56.72;21.52;;;-1.80;99.90;;;;;;5041583;28;20126;-63
2024/03/08 04:45:37;;;;;;;56.28;20.90;;;-1.80;99.90;;;;;;5039850;28;20029;-63
2024/03/08 04:48:03;;;;;;;58.95;21.60;;;-1.70;99.90;;;;;;5037001;28;20036;-64
2024/03/08 04:50:28;;;;;;;59.05;20.73;;;-1.70;99.90;;;;;;5042285;28;20033;-63
2024/03/08 04:52:55;;;;;;;54.58;21.15;;;-1.70;99.90;;;;;;5040952;28;20017;-63
2024/03/08 04:55:21;;;;;;;52.08;20.52;;;-1.70;99.90;;;;;;5039869;28;20026;-63
2024/03/08 04:57:47;;;;;;;53.22;20.38;;;-1.70;99.90;;;;;;5041916;28;20025;-63
2024/03/08 05:00:14;;;;;;;61.10;21.77;;;-1.70;99.90;;;;;;5038835;28;20083;-63
2024/03/08 05:02:41;;;;;;;54.90;20.48;;;-1.70;99.90;;;;;;5041983;28;20021;-63
2024/03/08 05:05:12;;;;;;;52.22;20.02;;;-1.70;99.90;;;;;;5038706;28;20439;-63
2024/03/08 05:07:41;;;;;;;51.50;18.30;;;-1.70;99.90;;;;;;5039771;28;20335;-63
2024/03/08 05:10:07;;;;;;;60.78;23.98;;;-1.70;99.90;;;;;;5042099;28;20044;-63
2024/03/08 05:12:33;;;;;;;57.40;20.58;;;-1.70;99.90;;;;;;5039844;28;20025;-63
2024/03/08 05:15:00;;;;;;;45.47;18.45;;;-1.60;99.90;;;;;;5042443;28;20049;-63
2024/03/08 05:17:25;;;;;;;56.13;21.27;;;-1.60;99.90;;;;;;5039221;28;20021;-63
2024/03/08 05:19:51;;;;;;;57.90;19.98;;;-1.60;99.90;;;;;;5040115;28;20075;-63
2024/03/08 05:22:17;;;;;;;62.78;23.70;;;-1.70;99.90;;;;;;5039796;28;20036;-63
2024/03/08 05:24:44;;;;;;;61.47;23.30;;;-1.70;99.90;;;;;;5041130;28;20041;-64
2024/03/08 05:27:10;;;;;;;54.83;19.80;;;-1.80;99.90;;;;;;5038995;28;20034;-64
2024/03/08 05:29:36;;;;;;;60.70;22.73;;;-1.80;99.90;;;;;;5040401;28;20029;-64
2024/03/08 05:32:02;;;;;;;56.58;21.58;;;-1.90;99.90;;;;;;5047975;28;20424;-64
2024/03/08 05:34:28;;;;;;;65.00;25.67;;;-2.00;99.90;;;;;;5038529;28;20021;-64
2024/03/08 05:36:54;;;;;;;61.97;23.65;;;-2.00;99.90;;;;;;5047084;28;20595;-63
2024/03/08 05:39:20;;;;;;;63.38;21.67;;;-2.00;99.90;;;;;;5045730;28;20021;-63
2024/03/08 05:41:46;;;;;;;63.88;25.05;;;-2.00;99.90;;;;;;5047245;28;20392;-63
2024/03/08 05:44:13;;;;;;;60.30;21.65;;;-1.90;99.90;;;;;;5038653;28;20436;-64
2024/03/08 05:46:39;;;;;;;63.72;24.83;;;-2.00;99.90;;;;;;5039227;28;20092;-64
2024/03/08 05:49:06;;;;;;;65.90;25.38;;;-2.00;99.90;;;;;;5041532;28;20078;-63
2024/03/08 05:51:34;;;;;;;60.42;23.63;;;-2.00;99.90;;;;;;5037866;28;20061;-64
2024/03/08 05:54:09;;;;;;;59.00;21.90;;;-2.00;99.90;;;;;;5036657;28;20039;-65
2024/03/08 05:56:36;;;;;;;56.97;20.60;;;-2.10;99.90;;;;;;5042327;28;20055;-64
2024/03/08 05:59:02;;;;;;;60.15;20.30;;;-2.20;99.90;;;;;;5041385;28;20480;-65
2024/03/08 06:01:28;;;;;;;60.60;22.33;;;-2.30;99.90;;;;;;5039090;28;20065;-64
2024/03/08 06:03:58;;;;;;;53.47;20.42;;;-2.40;99.90;;;;;;5038605;28;20424;-65
2024/03/08 06:06:24;;;;;;;52.17;18.75;;;-2.50;99.90;;;;;;5040793;28;20040;-65
2024/03/08 06:08:50;;;;;;;64.53;24.60;;;-2.50;99.90;;;;;;5039370;28;20096;-64
2024/03/08 06:11:17;;;;;;;59.03;19.52;;;-2.40;99.90;;;;;;5040083;28;20138;-64
2024/03/08 06:13:46;;;;;;;61.17;21.80;;;-2.30;99.90;;;;;;5039280;28;20102;-64
2024/03/08 06:16:12;;;;;;;62.08;21.95;;;-2.30;99.90;;;;;;5038214;28;20032;-64
2024/03/08 06:18:39;;;;;;;61.63;22.85;;;-2.30;99.90;;;;;;5039310;28;20029;-64
2024/03/08 06:21:05;;;;;;;57.88;22.02;;;-2.40;99.90;;;;;;5038652;28;20422;-65
2024/03/08 06:23:38;;;;;;;64.25;23.67;;;-2.50;99.90;;;;;;5036720;28;20390;-64
2024/03/08 06:26:10;;;;;;;62.55;21.73;;;-2.40;99.90;;;;;;5042731;28;20048;-64
2024/03/08 06:28:36;;;;;;;69.82;25.48;;;-2.40;99.90;;;;;;5039527;28;20061;-64
2024/03/08 06:31:02;;;;;;;63.13;24.00;;;-2.30;99.90;;;;;;5033851;28;20033;-64
2024/03/08 06:33:28;;;;;;;55.08;21.15;;;-2.20;99.90;;;;;;5037350;28;20030;-65
2024/03/08 06:35:57;;;;;;;54.10;21.90;;;-2.20;99.90;;;;;;5041131;28;20036;-65
2024/03/08 06:38:23;;;;;;;55.17;20.02;;;-2.20;99.90;;;;;;5039518;28;20535;-64
2024/03/08 06:40:49;;;;;;;61.13;22.35;;;-2.20;99.90;;;;;;5037348;28;20028;-64
2024/03/08 06:43:18;;;;;;;63.88;22.90;;;-2.20;99.90;;;;;;5045858;28;20476;-64
2024/03/08 06:45:50;;;;;;;59.47;21.83;;;-2.20;99.90;;;;;;5041916;28;20481;-64
2024/03/08 06:48:17;;;;;;;61.15;22.30;;;-2.10;99.90;;;;;;5040796;28;20029;-65
2024/03/08 06:50:44;;;;;;;62.10;22.48;;;-2.00;99.90;;;;;;5042023;28;20029;-64
2024/03/08 06:53:09;;;;;;;63.38;23.42;;;-1.90;99.90;;;;;;5038417;28;20018;-64
2024/03/08 06:55:35;;;;;;;61.30;21.85;;;-1.80;99.90;;;;;;5037014;28;20028;-64
2024/03/08 06:58:01;;;;;;;54.90;20.98;;;-1.70;99.90;;;;;;5038985;28;20112;-65
2024/03/08 07:00:28;;;;;;;53.75;22.65;;;-1.60;99.90;;;;;;5040974;28;20025;-64
2024/03/08 07:02:54;;;;;;;64.60;24.02;;;-1.50;99.90;;;;;;5038323;28;20022;-65
2024/03/08 07:05:20;;;;;;;57.22;23.23;;;-1.40;99.90;;;;;;5046986;28;20032;-65
2024/03/08 07:07:48;;;;;;;56.42;22.58;;;-1.30;99.90;;;;;;5042605;28;20113;-65
2024/03/08 07:10:15;;;;;;;52.97;22.30;;;-1.20;99.90;;;;;;5040465;28;20342;-65
2024/03/08 07:12:41;;;;;;;55.05;21.05;;;-1.20;99.90;;;;;;5035100;28;20025;-64
2024/03/08 07:15:07;;;;;;;61.55;22.42;;;-1.10;99.90;;;;;;5039031;28;20033;-65
2024/03/08 07:17:35;;;;;;;58.88;21.63;;;-1.00;99.90;;;;;;5038046;28;20136;-65
2024/03/08 07:20:07;;;;;;;62.00;21.77;;;-1.00;99.90;;;;;;5041096;28;20033;-65
2024/03/08 07:22:32;;;;;;;53.58;20.30;;;-0.90;99.90;;;;;;5045466;28;20427;-64
2024/03/08 07:25:19;;;;;;;59.38;20.52;;;-0.70;99.90;;;;;;5037773;28;20029;-65
2024/03/08 07:27:43;;;;;;;53.40;21.85;;;-0.60;99.90;;;;;;5042026;28;20039;-64
2024/03/08 07:30:10;;;;;;;51.42;19.80;;;-0.50;99.90;;;;;;5037086;28;20013;-64
2024/03/08 07:32:35;;;;;;;62.08;23.63;;;-0.40;99.90;;;;;;5036876;28;20029;-64
2024/03/08 07:35:01;;;;;;;51.72;20.77;;;-0.30;99.90;;;;;;5047076;28;20427;-64
2024/03/08 07:37:27;;;;;;;55.20;20.25;;;-0.20;99.90;;;;;;5041083;28;20399;-64
2024/03/08 07:39:53;;;;;;;52.38;19.70;;;0.00;99.90;;;;;;5037514;28;20037;-65
2024/03/08 07:42:18;;;;;;;51.35;20.02;;;0.10;99.90;;;;;;5044152;28;20089;-64
2024/03/08 07:44:45;;;;;;;44.35;18.45;;;0.30;99.90;;;;;;5038029;28;20029;-64
2024/03/08 07:47:12;;;;;;;47.08;19.25;;;0.40;99.90;;;;;;5044587;28;20033;-64
2024/03/08 07:49:37;;;;;;;50.30;20.90;;;0.60;99.90;;;;;;5044076;28;20033;-64
2024/03/08 07:52:04;;;;;;;48.90;19.67;;;0.70;99.90;;;;;;5039880;28;20125;-65
2024/03/08 07:54:30;;;;;;;49.78;19.08;;;0.90;99.90;;;;;;5048111;28;20030;-64
2024/03/08 07:56:56;;;;;;;53.13;19.67;;;1.00;99.90;;;;;;5039463;28;20052;-64
2024/03/08 07:59:22;;;;;;;50.50;18.95;;;1.10;99.90;;;;;;5043879;28;20048;-63
2024/03/08 08:01:47;;;;;;;39.72;15.52;;;1.20;99.90;;;;;;5041967;28;20419;-63
2024/03/08 08:04:15;;;;;;;38.78;15.68;;;1.30;99.90;;;;;;5039665;28;20548;-63
2024/03/08 08:06:41;;;;;;;46.58;17.20;;;1.50;99.90;;;;;;5029906;28;20130;-63
2024/03/08 08:09:14;;;;;;;45.55;17.73;;;1.70;99.90;;;;;;5039949;28;20049;-65
2024/03/08 08:11:43;;;;;;;44.42;18.45;;;1.90;99.90;;;;;;5039933;28;20029;-65
2024/03/08 08:14:09;;;;;;;42.65;16.08;;;2.10;99.90;;;;;;5040927;28;20056;-64
2024/03/08 08:16:36;;;;;;;38.58;16.50;;;;;;;;;;5047377;28;20051;-66
2024/03/08 08:19:07;;;;;;;45.13;16.73;;;2.40;99.90;;;;;;5042926;28;20121;-65
2024/03/08 08:21:34;;;;;;;44.83;18.52;;;2.60;99.90;;;;;;5044702;28;20472;-64
2024/03/08 08:24:00;;;;;;;41.00;17.25;;;2.70;99.90;;;;;;5043090;28;20117;-63
2024/03/08 08:26:26;;;;;;;40.40;16.17;;;2.80;99.90;;;;;;5042659;28;20115;-64
2024/03/08 08:28:53;;;;;;;45.05;19.10;;;2.90;99.90;;;;;;5042481;28;20025;-64
2024/03/08 08:31:19;;;;;;;40.45;17.40;;;3.00;99.90;;;;;;5039282;28;20035;-64
2024/03/08 08:33:45;;;;;;;38.80;18.55;;;3.10;99.90;;;;;;5038435;28;20022;-64
2024/03/08 08:36:10;;;;;;;41.35;17.98;;;3.20;99.90;;;;;;5044378;28;20378;-66
2024/03/08 08:38:36;;;;;;;39.70;17.67;;;3.30;99.90;;;;;;5041605;28;20025;-64
2024/03/08 08:41:02;;;;;;;39.10;16.20;;;3.40;99.90;;;;;;5040049;28;20032;-64
2024/03/08 08:43:28;;;;;;;37.03;16.33;;;3.60;99.90;;;;;;5040409;28;20017;-64
2024/03/08 08:45:55;;;;;;;39.83;17.02;;;4.00;99.90;;;;;;5042062;28;20457;-64
2024/03/08 08:48:21;;;;;;;36.17;15.65;;;4.40;99.90;;;;;;5039442;28;20028;-64
2024/03/08 08:50:46;;;;;;;34.63;14.85;;;5.00;99.90;;;;;;5044991;28;20052;-64
2024/03/08 08:53:14;;;;;;;34.88;15.15;;;5.50;99.90;;;;;;5039475;28;20033;-65
2024/03/08 08:55:40;;;;;;;33.65;15.85;;;5.90;99.90;;;;;;5041147;28;20024;-64
2024/03/08 08:58:07;;;;;;;29.85;13.50;;;6.20;99.90;;;;;;5038710;28;20110;-64
2024/03/08 09:00:34;;;;;;;35.03;14.57;;;6.40;99.90;;;;;;5034199;28;20029;-62
2024/03/08 09:03:02;;;;;;;27.17;11.82;;;6.80;99.90;;;;;;5041316;28;20484;-62
2024/03/08 09:05:27;;;;;;;27.75;12.82;;;7.20;99.90;;;;;;5039988;28;20441;-63
2024/03/08 09:07:53;;;;;;;33.38;13.38;;;7.30;99.90;;;;;;5039866;28;20033;-62
2024/03/08 09:10:19;;;;;;;32.25;14.60;;;7.70;99.90;;;;;;5036353;28;20564;-63
2024/03/08 09:12:45;;;;;;;32.13;14.23;;;8.00;99.90;;;;;;5038654;28;20018;-63
2024/03/08 09:15:13;;;;;;;30.35;14.75;;;8.30;99.90;;;;;;5037342;28;20447;-64
2024/03/08 09:17:39;;;;;;;34.25;16.35;;;8.50;99.90;;;;;;5037866;28;20102;-64
2024/03/08 09:20:07;;;;;;;30.42;13.20;;;8.50;99.10;;;;;;5043120;28;20085;-63
2024/03/08 09:22:33;;;;;;;33.33;14.15;;;7.90;99.90;;;;;;5038885;28;20457;-63
2024/03/08 09:24:58;;;;;;;34.78;15.18;;;7.70;99.90;;;;;;5041188;28;20045;-63
2024/03/08 09:27:24;;;;;;;35.13;15.27;;;7.90;99.90;;;;;;5039745;28;20679;-63
2024/03/08 09:29:50;;;;;;;30.48;15.38;;;8.00;99.90;;;;;;5041095;28;20029;-63
2024/03/08 09:32:16;;;;;;;33.17;15.98;;;8.20;99.90;;;;;;5038838;28;20072;-62
2024/03/08 09:34:42;;;;;;;33.70;15.77;;;8.20;99.90;;;;;;5040442;28;20030;-63
2024/03/08 09:37:08;;;;;;;34.67;16.30;;;8.20;99.90;;;;;;5041849;28;20033;-63
2024/03/08 09:39:34;;;;;;;34.83;18.00;;;8.30;99.90;;;;;;5038465;28;20476;-63
2024/03/08 09:42:03;;;;;;;37.20;18.90;;;8.40;99.90;;;;;;5040741;28;20032;-63
2024/03/08 09:44:29;;;;;;;38.38;17.20;;;8.20;99.90;;;;;;5037223;28;20574;-62
2024/03/08 09:46:55;;;;;;;34.08;15.30;;;8.30;99.90;;;;;;5039494;28;20025;-63
2024/03/08 09:49:21;;;;;;;33.47;14.98;;;8.60;99.90;;;;;;5039245;28;20070;-64
2024/03/08 09:51:47;;;;;;;28.02;13.60;;;8.90;99.90;;;;;;5042256;28;20025;-63
2024/03/08 09:54:13;;;;;;;31.20;15.35;;;8.80;98.80;;;;;;5040147;28;20108;-63
2024/03/08 09:56:44;;;;;;;36.22;14.73;;;8.30;99.10;;;;;;5037355;28;20018;-63
2024/03/08 10:01:55;;;;;;;37.28;16.13;;;7.90;99.90;;;;;;5041276;28;20103;-63
2024/03/08 10:04:22;;;;;;;33.97;16.73;;;8.50;99.90;;;;;;5041502;28;20025;-63
2024/03/08 10:06:48;;;;;;;37.35;18.45;;;8.70;99.70;;;;;;5038788;28;20697;-63
2024/03/08 10:09:14;;;;;;;37.72;16.73;;;8.80;98.50;;;;;;5040643;28;20396;-63
2024/03/08 10:11:43;;;;;;;35.90;14.32;;;8.80;99.90;;;;;;5040073;28;20136;-63
2024/03/08 10:14:10;;;;;;;31.30;12.48;;;9.20;99.30;;;;;;5045248;28;20076;-63
2024/03/08 10:16:37;;;;;;;31.73;14.18;;;9.80;98.90;;;;;;5047049;28;20068;-63
2024/03/08 10:19:03;;;;;;;33.08;15.48;;;9.70;99.10;;;;;;5046891;28;20871;-63
2024/03/08 10:21:28;;;;;;;32.45;17.33;;;10.50;97.50;;;;;;5043986;28;20135;-64
2024/03/08 10:23:56;;;;;;;31.80;16.75;;;11.30;92.40;;;;;;5040320;28;20040;-63
2024/03/08 10:26:21;;;;;;;31.25;13.98;;;11.00;91.00;;;;;;5049090;28;20032;-63
2024/03/08 10:28:52;;;;;;;34.97;16.75;;;10.60;93.90;;;;;;5044406;28;20055;-63
2024/03/08 10:31:19;;;;;;;33.40;15.30;;;10.50;94.20;;;;;;5045993;28;20075;-63
2024/03/08 10:33:49;;;;;;;31.55;14.85;;;10.20;96.20;;;;;;5039502;28;20033;-64
2024/03/08 10:36:16;;;;;;;30.58;14.00;;;10.60;96.60;;;;;;5051783;28;20020;-64
2024/03/08 10:38:46;;;;;;;32.22;15.00;;;11.50;94.90;;;;;;5041280;28;20060;-64
2024/03/08 10:41:12;;;;;;;30.80;15.00;;;12.20;90.50;;;;;;5050355;28;20032;-63
2024/03/08 10:44:19;;;;;;;31.30;17.75;;;12.20;84.20;;;;;;5039057;28;20029;-64
2024/03/08 10:46:56;;;;;;;34.97;18.50;;;11.90;88.10;;;;;;5037208;28;20779;-63
2024/03/08 10:49:35;;;;;;;38.25;17.60;;;11.60;87.20;;;;;;5048050;28;20681;-64
2024/03/08 10:52:05;;;;;;;31.73;15.27;;;11.00;90.90;;;;;;5046786;28;20025;-64
2024/03/08 10:54:32;;;;;;;;;;;10.70;92.70;;;;;;5041618;28;20029;-63
2024/03/08 10:56:58;;;;;;;36.72;18.45;;;10.80;92.80;;;;;;5040777;28;19967;-64
2024/03/08 10:59:27;;;;;;;34.63;15.73;;;10.80;91.60;;;;;;5049194;28;20029;-64
2024/03/08 11:01:53;;;;;;;32.95;15.63;;;10.80;93.70;;;;;;5045085;28;20009;-64
2024/03/08 11:04:22;;;;;;;30.65;14.57;;;11.00;93.10;;;;;;5047221;28;20482;-64
2024/03/08 11:06:52;;;;;;;28.10;12.88;;;11.50;91.30;;;;;;5052253;28;20029;-64
2024/03/08 11:09:50;;;;;;;;;;;11.90;90.80;;;;;;5039723;28;20033;-64
2024/03/08 11:12:29;;;;;;;34.15;16.15;;;12.10;89.50;;;;;;5012804;28;19912;-63
2024/03/08 11:14:55;;;;;;;31.58;15.50;;;11.90;88.90;;;;;;5047693;28;20641;-64
2024/03/08 11:17:48;;;;;;;28.05;13.10;;;12.20;90.40;;;;;;5040011;28;20037;-63
2024/03/08 11:20:23;;;;;;;32.58;16.85;;;12.20;85.10;;;;;;5049217;28;20564;-63
2024/03/08 11:22:53;;;;;;;36.25;15.93;;;11.90;87.70;;;;;;5038904;28;20346;-62
2024/03/08 11:25:31;;;;;;;;;;;11.70;90.90;;;;;;5034263;28;20445;-64
2024/03/08 11:28:16;;;;;;;31.40;17.45;;;12.10;88.60;;;;;;5037432;28;19939;-63
2024/03/08 11:30:44;;;;;;;27.05;13.70;;;12.50;85.60;;;;;;5040738;28;20044;-65
2024/03/08 11:33:14;;;;;;;23.73;11.70;;;12.80;88.10;;;;;;5036789;28;20029;-65
2024/03/08 11:35:42;;;;;;;18.85;9.38;;;13.80;84.20;;;;;;5040080;28;20021;-64
2024/03/08 11:38:09;;;;;;;19.73;8.77;;;14.80;69.90;;;;;;5039980;28;20013;-65
2024/03/08 11:40:35;;;;;;;14.95;7.80;;;15.60;65.70;;;;;;5037103;28;20582;-65
2024/03/08 11:43:06;;;;;;;16.33;8.82;;;16.10;63.90;;;;;;5040906;28;20037;-64
2024/03/08 11:45:36;;;;;;;16.08;7.43;;;16.70;59.60;;;;;;5035515;28;20505;-64
2024/03/08 11:48:03;;;;;;;15.93;7.22;;;17.10;59.70;;;;;;5037716;28;20036;-64
2024/03/08 11:50:29;;;;;;;15.30;7.50;;;17.20;57.90;;;;;;5036959;28;20033;-64
2024/03/08 11:53:02;;;;;;;17.08;7.38;;;17.10;58.10;;;;;;5036310;28;20021;-65
2024/03/08 11:55:29;;;;;;;16.08;8.15;;;16.90;56.10;;;;;;5036251;28;20033;-65
2024/03/08 11:58:04;;;;;;;15.93;7.55;;;16.70;57.90;;;;;;5040366;28;20017;-64
2024/03/08 12:00:38;;;;;;;15.95;7.28;;;16.80;54.50;;;;;;5036554;28;20038;-64
2024/03/08 12:03:07;;;;;;;16.60;7.55;;;17.10;55.30;;;;;;5037643;28;20615;-65
2024/03/08 12:05:33;;;;;;;17.58;7.93;;;17.40;55.50;;;;;;5039782;28;20029;-65
2024/03/08 12:07:59;;;;;;;13.05;6.47;;;17.50;53.30;;;;;;5039800;28;20044;-65
2024/03/08 12:10:25;;;;;;;16.10;7.55;;;17.10;54.30;;;;;;5038265;28;20394;-65
2024/03/08 12:12:53;;;;;;;18.40;9.15;;;17.00;55.70;;;;;;5043778;28;20025;-65
2024/03/08 12:15:23;;;;;;;20.00;7.13;;;17.40;55.70;;;;;;5046965;28;20561;-64
2024/03/08 12:17:51;;;;;;;15.55;7.68;;;17.50;54.80;;;;;;5041034;28;20427;-64
2024/03/08 12:20:22;;;;;;;15.88;7.78;;;17.70;54.50;;;;;;5050813;28;20025;-65
2024/03/08 12:22:48;;;;;;;18.58;7.88;;;17.90;53.20;;;;;;5040755;28;20460;-65
2024/03/08 12:25:15;;;;;;;16.40;7.47;;;18.10;53.60;;;;;;5041358;28;20037;-65
2024/03/08 12:27:41;;;;;;;17.15;7.55;;;17.80;52.90;;;;;;5042002;28;20108;-65
2024/03/08 12:30:21;;;;;;;21.23;8.02;;;17.40;55.00;;;;;;5041575;28;20045;-64
2024/03/08 12:32:59;;;;;;;;;;;17.90;55.90;;;;;;5041605;28;20028;-65
2024/03/08 12:35:29;;;;;;;13.10;5.80;;;18.40;54.60;;;;;;5039922;28;20022;-64
2024/03/08 12:37:59;;;;;;;;;;;18.80;52.20;;;;;;5040940;28;20014;-65